sensor_id;sensor_type;location;lat;lon;timestamp;P1;durP1;ratioP1;P2;durP2;ratioP2
58874;SDS011;44652;49.040;12.126;2023-03-13T05:25:33;16.70;;;10.48;;
58874;SDS011;44652;49.040;12.126;2023-03-13T05:28:19;18.50;;;11.20;;
58874;SDS011;44652;49.040;12.126;2023-03-13T05:30:53;14.52;;;10.50;;
58874;SDS011;44652;49.040;12.126;2023-03-13T05:33:48;15.48;;;9.40;;
58874;SDS011;44652;49.040;12.126;2023-03-13T05:36:43;17.45;;;10.68;;
58874;SDS011;44652;49.040;12.126;2023-03-13T05:39:28;16.38;;;11.07;;
58874;SDS011;44652;49.040;12.126;2023-03-13T05:42:11;16.75;;;10.82;;
58874;SDS011;44652;49.040;12.126;2023-03-13T05:44:57;15.90;;;10.05;;
58874;SDS011;44652;49.040;12.126;2023-03-13T05:47:42;14.32;;;10.80;;
58874;SDS011;44652;49.040;12.126;2023-03-13T05:50:38;14.25;;;9.85;;
58874;SDS011;44652;49.040;12.126;2023-03-13T05:53:23;17.95;;;11.88;;
58874;SDS011;44652;49.040;12.126;2023-03-13T05:56:10;18.48;;;11.10;;
58874;SDS011;44652;49.040;12.126;2023-03-13T05:59:09;42.45;;;26.27;;
58874;SDS011;44652;49.040;12.126;2023-03-13T06:01:54;20.55;;;12.43;;
58874;SDS011;44652;49.040;12.126;2023-03-13T06:04:32;24.77;;;14.93;;
58874;SDS011;44652;49.040;12.126;2023-03-13T06:06:59;20.15;;;12.48;;
58874;SDS011;44652;49.040;12.126;2023-03-13T06:09:26;14.93;;;10.43;;
58874;SDS011;44652;49.040;12.126;2023-03-13T06:11:54;17.83;;;10.05;;
58874;SDS011;44652;49.040;12.126;2023-03-13T06:14:23;30.58;;;17.67;;
58874;SDS011;44652;49.040;12.126;2023-03-13T06:17:13;15.95;;;8.50;;
58874;SDS011;44652;49.040;12.126;2023-03-13T06:19:39;11.77;;;8.18;;
58874;SDS011;44652;49.040;12.126;2023-03-13T06:22:06;12.13;;;8.40;;
58874;SDS011;44652;49.040;12.126;2023-03-13T06:24:32;13.85;;;9.45;;
58874;SDS011;44652;49.040;12.126;2023-03-13T06:26:59;11.45;;;7.43;;
58874;SDS011;44652;49.040;12.126;2023-03-13T06:29:28;15.20;;;9.02;;
58874;SDS011;44652;49.040;12.126;2023-03-13T06:31:54;9.85;;;7.28;;
58874;SDS011;44652;49.040;12.126;2023-03-13T06:34:21;11.13;;;7.63;;
58874;SDS011;44652;49.040;12.126;2023-03-13T06:36:48;12.68;;;8.35;;
58874;SDS011;44652;49.040;12.126;2023-03-13T06:39:14;12.18;;;7.35;;
58874;SDS011;44652;49.040;12.126;2023-03-13T06:41:41;10.93;;;7.00;;
58874;SDS011;44652;49.040;12.126;2023-03-13T06:44:07;11.57;;;6.70;;
58874;SDS011;44652;49.040;12.126;2023-03-13T06:46:34;11.77;;;6.57;;
58874;SDS011;44652;49.040;12.126;2023-03-13T06:49:00;9.32;;;6.53;;
58874;SDS011;44652;49.040;12.126;2023-03-13T06:51:30;8.52;;;5.50;;
58874;SDS011;44652;49.040;12.126;2023-03-13T06:53:56;8.02;;;4.75;;
58874;SDS011;44652;49.040;12.126;2023-03-13T06:56:23;12.95;;;6.20;;
58874;SDS011;44652;49.040;12.126;2023-03-13T06:58:49;11.00;;;5.35;;
58874;SDS011;44652;49.040;12.126;2023-03-13T07:01:16;11.32;;;5.60;;
58874;SDS011;44652;49.040;12.126;2023-03-13T07:03:43;11.85;;;5.80;;
58874;SDS011;44652;49.040;12.126;2023-03-13T07:06:10;9.60;;;6.10;;
58874;SDS011;44652;49.040;12.126;2023-03-13T07:08:37;11.73;;;6.15;;
58874;SDS011;44652;49.040;12.126;2023-03-13T07:11:05;11.63;;;6.47;;
58874;SDS011;44652;49.040;12.126;2023-03-13T07:13:32;10.25;;;6.78;;
58874;SDS011;44652;49.040;12.126;2023-03-13T07:15:59;9.35;;;6.63;;
58874;SDS011;44652;49.040;12.126;2023-03-13T07:18:26;18.77;;;9.57;;
58874;SDS011;44652;49.040;12.126;2023-03-13T07:20:53;12.68;;;7.82;;
58874;SDS011;44652;49.040;12.126;2023-03-13T07:23:20;11.00;;;7.72;;
58874;SDS011;44652;49.040;12.126;2023-03-13T07:28:20;10.10;;;6.72;;
58874;SDS011;44652;49.040;12.126;2023-03-13T07:30:47;12.07;;;7.30;;
58874;SDS011;44652;49.040;12.126;2023-03-13T07:33:13;18.65;;;8.15;;
58874;SDS011;44652;49.040;12.126;2023-03-13T07:35:40;11.25;;;7.90;;
58874;SDS011;44652;49.040;12.126;2023-03-13T07:38:06;15.75;;;8.80;;
58874;SDS011;44652;49.040;12.126;2023-03-13T07:40:33;13.38;;;7.97;;
58874;SDS011;44652;49.040;12.126;2023-03-13T07:42:59;11.60;;;8.07;;
58874;SDS011;44652;49.040;12.126;2023-03-13T07:45:25;10.95;;;7.03;;
58874;SDS011;44652;49.040;12.126;2023-03-13T07:47:52;13.18;;;7.90;;
58874;SDS011;44652;49.040;12.126;2023-03-13T07:50:19;11.32;;;8.38;;
58874;SDS011;44652;49.040;12.126;2023-03-13T07:52:45;12.50;;;8.02;;
58874;SDS011;44652;49.040;12.126;2023-03-13T07:55:12;9.77;;;6.78;;
58874;SDS011;44652;49.040;12.126;2023-03-13T07:57:38;10.13;;;6.35;;
58874;SDS011;44652;49.040;12.126;2023-03-13T08:00:05;11.40;;;6.43;;
58874;SDS011;44652;49.040;12.126;2023-03-13T08:02:37;10.55;;;5.80;;
58874;SDS011;44652;49.040;12.126;2023-03-13T08:05:03;8.52;;;5.28;;
58874;SDS011;44652;49.040;12.126;2023-03-13T08:07:30;8.70;;;5.10;;
58874;SDS011;44652;49.040;12.126;2023-03-13T08:09:57;10.32;;;5.80;;
58874;SDS011;44652;49.040;12.126;2023-03-13T08:12:23;10.40;;;7.50;;
58874;SDS011;44652;49.040;12.126;2023-03-13T08:14:50;11.50;;;5.93;;
58874;SDS011;44652;49.040;12.126;2023-03-13T08:17:16;8.50;;;5.43;;
58874;SDS011;44652;49.040;12.126;2023-03-13T08:19:43;9.18;;;6.28;;
58874;SDS011;44652;49.040;12.126;2023-03-13T08:22:09;9.18;;;5.97;;
58874;SDS011;44652;49.040;12.126;2023-03-13T08:24:36;10.85;;;5.20;;
58874;SDS011;44652;49.040;12.126;2023-03-13T08:27:02;9.95;;;6.30;;
58874;SDS011;44652;49.040;12.126;2023-03-13T08:29:29;9.23;;;5.97;;
58874;SDS011;44652;49.040;12.126;2023-03-13T08:31:55;12.48;;;6.60;;
58874;SDS011;44652;49.040;12.126;2023-03-13T08:34:22;11.63;;;6.25;;
58874;SDS011;44652;49.040;12.126;2023-03-13T08:36:48;10.52;;;6.30;;
58874;SDS011;44652;49.040;12.126;2023-03-13T08:39:16;8.85;;;5.70;;
58874;SDS011;44652;49.040;12.126;2023-03-13T08:41:43;8.13;;;5.25;;
58874;SDS011;44652;49.040;12.126;2023-03-13T08:44:10;7.35;;;4.50;;
58874;SDS011;44652;49.040;12.126;2023-03-13T08:46:36;9.55;;;5.35;;
58874;SDS011;44652;49.040;12.126;2023-03-13T08:49:04;15.95;;;6.43;;
58874;SDS011;44652;49.040;12.126;2023-03-13T08:51:31;8.98;;;5.60;;
58874;SDS011;44652;49.040;12.126;2023-03-13T08:53:59;11.23;;;5.63;;
58874;SDS011;44652;49.040;12.126;2023-03-13T08:56:28;8.82;;;5.28;;
58874;SDS011;44652;49.040;12.126;2023-03-13T08:58:59;9.63;;;4.85;;
58874;SDS011;44652;49.040;12.126;2023-03-13T09:01:27;10.27;;;4.83;;
58874;SDS011;44652;49.040;12.126;2023-03-13T09:03:54;9.95;;;5.38;;
58874;SDS011;44652;49.040;12.126;2023-03-13T09:06:21;6.55;;;4.55;;
58874;SDS011;44652;49.040;12.126;2023-03-13T09:08:47;10.02;;;4.95;;
58874;SDS011;44652;49.040;12.126;2023-03-13T09:11:15;7.53;;;5.00;;
58874;SDS011;44652;49.040;12.126;2023-03-13T09:13:43;11.55;;;4.07;;
58874;SDS011;44652;49.040;12.126;2023-03-13T09:16:11;9.52;;;4.55;;
58874;SDS011;44652;49.040;12.126;2023-03-13T09:18:38;10.35;;;4.65;;
58874;SDS011;44652;49.040;12.126;2023-03-13T09:21:06;8.38;;;4.93;;
58874;SDS011;44652;49.040;12.126;2023-03-13T09:23:34;6.63;;;4.70;;
58874;SDS011;44652;49.040;12.126;2023-03-13T09:26:01;8.17;;;4.43;;
58874;SDS011;44652;49.040;12.126;2023-03-13T09:28:27;7.88;;;5.05;;
58874;SDS011;44652;49.040;12.126;2023-03-13T09:30:54;7.78;;;4.30;;
58874;SDS011;44652;49.040;12.126;2023-03-13T09:33:24;7.80;;;4.50;;
58874;SDS011;44652;49.040;12.126;2023-03-13T09:35:50;5.53;;;4.35;;
58874;SDS011;44652;49.040;12.126;2023-03-13T09:38:18;6.47;;;4.70;;
58874;SDS011;44652;49.040;12.126;2023-03-13T09:40:46;9.10;;;4.82;;
58874;SDS011;44652;49.040;12.126;2023-03-13T09:45:57;8.13;;;5.00;;
58874;SDS011;44652;49.040;12.126;2023-03-13T09:48:33;9.75;;;5.07;;
58874;SDS011;44652;49.040;12.126;2023-03-13T09:51:35;7.07;;;4.78;;
58874;SDS011;44652;49.040;12.126;2023-03-13T09:56:22;10.13;;;5.30;;
58874;SDS011;44652;49.040;12.126;2023-03-13T09:59:04;7.20;;;5.13;;
58874;SDS011;44652;49.040;12.126;2023-03-13T10:01:34;15.30;;;5.68;;
58874;SDS011;44652;49.040;12.126;2023-03-13T10:06:44;10.73;;;6.43;;
58874;SDS011;44652;49.040;12.126;2023-03-13T10:09:15;9.18;;;5.18;;
58874;SDS011;44652;49.040;12.126;2023-03-13T10:11:43;7.80;;;5.18;;
58874;SDS011;44652;49.040;12.126;2023-03-13T10:14:16;9.60;;;6.65;;
58874;SDS011;44652;49.040;12.126;2023-03-13T10:16:54;10.30;;;5.60;;
58874;SDS011;44652;49.040;12.126;2023-03-13T10:19:25;7.83;;;5.20;;
58874;SDS011;44652;49.040;12.126;2023-03-13T10:21:52;13.32;;;5.32;;
58874;SDS011;44652;49.040;12.126;2023-03-13T10:26:56;11.48;;;6.95;;
58874;SDS011;44652;49.040;12.126;2023-03-13T10:29:26;9.45;;;5.60;;
58874;SDS011;44652;49.040;12.126;2023-03-13T10:31:57;9.93;;;4.97;;
58874;SDS011;44652;49.040;12.126;2023-03-13T10:34:25;9.80;;;5.05;;
58874;SDS011;44652;49.040;12.126;2023-03-13T10:36:57;8.63;;;4.53;;
58874;SDS011;44652;49.040;12.126;2023-03-13T10:39:25;9.20;;;4.72;;
58874;SDS011;44652;49.040;12.126;2023-03-13T10:42:10;9.05;;;4.72;;
58874;SDS011;44652;49.040;12.126;2023-03-13T10:44:41;6.57;;;4.40;;
58874;SDS011;44652;49.040;12.126;2023-03-13T10:47:08;7.00;;;4.35;;
58874;SDS011;44652;49.040;12.126;2023-03-13T10:52:03;6.47;;;3.83;;
58874;SDS011;44652;49.040;12.126;2023-03-13T10:54:31;7.05;;;4.20;;
58874;SDS011;44652;49.040;12.126;2023-03-13T10:57:21;11.15;;;4.28;;
58874;SDS011;44652;49.040;12.126;2023-03-13T10:59:57;6.80;;;4.63;;
58874;SDS011;44652;49.040;12.126;2023-03-13T11:02:26;11.63;;;4.45;;
58874;SDS011;44652;49.040;12.126;2023-03-13T11:04:53;6.90;;;3.70;;
58874;SDS011;44652;49.040;12.126;2023-03-13T11:07:33;7.82;;;3.72;;
58874;SDS011;44652;49.040;12.126;2023-03-13T11:10:02;8.57;;;3.80;;
58874;SDS011;44652;49.040;12.126;2023-03-13T11:14:56;6.25;;;3.40;;
58874;SDS011;44652;49.040;12.126;2023-03-13T11:17:23;7.10;;;5.47;;
58874;SDS011;44652;49.040;12.126;2023-03-13T11:20:00;7.13;;;3.65;;
58874;SDS011;44652;49.040;12.126;2023-03-13T11:22:38;6.88;;;4.50;;
58874;SDS011;44652;49.040;12.126;2023-03-13T11:25:17;6.97;;;3.13;;
58874;SDS011;44652;49.040;12.126;2023-03-13T11:30:24;7.88;;;3.30;;
58874;SDS011;44652;49.040;12.126;2023-03-13T11:32:55;8.50;;;3.50;;
58874;SDS011;44652;49.040;12.126;2023-03-13T11:37:54;4.88;;;2.60;;
58874;SDS011;44652;49.040;12.126;2023-03-13T11:40:43;5.55;;;2.83;;
58874;SDS011;44652;49.040;12.126;2023-03-13T11:43:17;6.70;;;3.10;;
58874;SDS011;44652;49.040;12.126;2023-03-13T11:50:54;3.85;;;2.15;;
58874;SDS011;44652;49.040;12.126;2023-03-13T12:01:35;8.63;;;3.47;;
58874;SDS011;44652;49.040;12.126;2023-03-13T12:06:33;8.02;;;3.10;;
58874;SDS011;44652;49.040;12.126;2023-03-13T12:09:05;6.70;;;3.50;;
58874;SDS011;44652;49.040;12.126;2023-03-13T12:11:47;6.00;;;3.10;;
58874;SDS011;44652;49.040;12.126;2023-03-13T12:16:58;6.30;;;3.10;;
58874;SDS011;44652;49.040;12.126;2023-03-13T12:19:49;5.25;;;3.13;;
58874;SDS011;44652;49.040;12.126;2023-03-13T12:22:23;5.32;;;3.20;;
58874;SDS011;44652;49.040;12.126;2023-03-13T12:24:51;5.32;;;2.80;;
58874;SDS011;44652;49.040;12.126;2023-03-13T12:29:55;5.00;;;2.90;;
58874;SDS011;44652;49.040;12.126;2023-03-13T12:32:39;5.65;;;3.55;;
58874;SDS011;44652;49.040;12.126;2023-03-13T12:35:15;6.05;;;3.20;;
58874;SDS011;44652;49.040;12.126;2023-03-13T12:37:47;7.53;;;2.85;;
58874;SDS011;44652;49.040;12.126;2023-03-13T12:40:34;5.10;;;2.80;;
58874;SDS011;44652;49.040;12.126;2023-03-13T12:43:04;6.53;;;3.65;;
58874;SDS011;44652;49.040;12.126;2023-03-13T12:45:35;6.60;;;2.80;;
58874;SDS011;44652;49.040;12.126;2023-03-13T12:50:32;8.43;;;2.88;;
58874;SDS011;44652;49.040;12.126;2023-03-13T13:00:41;3.97;;;2.40;;
58874;SDS011;44652;49.040;12.126;2023-03-13T13:11:33;4.28;;;2.70;;
58874;SDS011;44652;49.040;12.126;2023-03-13T13:13:54;5.28;;;2.58;;
58874;SDS011;44652;49.040;12.126;2023-03-13T13:16:21;5.32;;;2.75;;
58874;SDS011;44652;49.040;12.126;2023-03-13T13:18:48;4.50;;;2.50;;
58874;SDS011;44652;49.040;12.126;2023-03-13T13:23:45;4.50;;;2.42;;
58874;SDS011;44652;49.040;12.126;2023-03-13T13:28:52;4.10;;;2.20;;
58874;SDS011;44652;49.040;12.126;2023-03-13T13:34:04;6.18;;;2.38;;
58874;SDS011;44652;49.040;12.126;2023-03-13T13:36:38;5.93;;;2.50;;
58874;SDS011;44652;49.040;12.126;2023-03-13T13:39:25;4.78;;;2.30;;
58874;SDS011;44652;49.040;12.126;2023-03-13T13:41:56;5.28;;;2.30;;
58874;SDS011;44652;49.040;12.126;2023-03-13T13:44:24;5.72;;;2.30;;
58874;SDS011;44652;49.040;12.126;2023-03-13T13:46:51;4.82;;;2.20;;
58874;SDS011;44652;49.040;12.126;2023-03-13T13:49:20;3.08;;;1.88;;
58874;SDS011;44652;49.040;12.126;2023-03-13T13:56:56;4.00;;;2.28;;
58874;SDS011;44652;49.040;12.126;2023-03-13T13:59:31;6.22;;;2.20;;
58874;SDS011;44652;49.040;12.126;2023-03-13T14:04:32;4.43;;;2.33;;
58874;SDS011;44652;49.040;12.126;2023-03-13T14:07:00;4.10;;;2.20;;
58874;SDS011;44652;49.040;12.126;2023-03-13T14:12:29;4.05;;;1.90;;
58874;SDS011;44652;49.040;12.126;2023-03-13T14:17:39;4.45;;;2.30;;
58874;SDS011;44652;49.040;12.126;2023-03-13T14:20:15;4.03;;;2.20;;
58874;SDS011;44652;49.040;12.126;2023-03-13T14:22:45;5.15;;;2.00;;
58874;SDS011;44652;49.040;12.126;2023-03-13T14:25:12;4.20;;;2.10;;
58874;SDS011;44652;49.040;12.126;2023-03-13T14:27:42;3.70;;;2.20;;
58874;SDS011;44652;49.040;12.126;2023-03-13T14:30:09;3.35;;;1.98;;
58874;SDS011;44652;49.040;12.126;2023-03-13T14:32:37;4.85;;;2.50;;
58874;SDS011;44652;49.040;12.126;2023-03-13T14:35:04;5.43;;;2.17;;
58874;SDS011;44652;49.040;12.126;2023-03-13T14:37:35;4.22;;;2.22;;
58874;SDS011;44652;49.040;12.126;2023-03-13T14:40:06;3.80;;;2.53;;
58874;SDS011;44652;49.040;12.126;2023-03-13T14:42:39;6.45;;;3.30;;
58874;SDS011;44652;49.040;12.126;2023-03-13T14:45:13;5.28;;;2.63;;
58874;SDS011;44652;49.040;12.126;2023-03-13T14:47:41;5.25;;;2.30;;
58874;SDS011;44652;49.040;12.126;2023-03-13T14:50:11;4.55;;;2.63;;
58874;SDS011;44652;49.040;12.126;2023-03-13T14:52:43;6.03;;;2.40;;
58874;SDS011;44652;49.040;12.126;2023-03-13T14:57:55;6.65;;;2.55;;
58874;SDS011;44652;49.040;12.126;2023-03-13T15:00:35;5.68;;;2.50;;
58874;SDS011;44652;49.040;12.126;2023-03-13T15:05:38;5.28;;;2.47;;
58874;SDS011;44652;49.040;12.126;2023-03-13T15:08:10;6.53;;;2.72;;
58874;SDS011;44652;49.040;12.126;2023-03-13T15:10:38;5.82;;;2.35;;
58874;SDS011;44652;49.040;12.126;2023-03-13T15:13:15;5.80;;;2.80;;
58874;SDS011;44652;49.040;12.126;2023-03-13T15:15:42;6.22;;;2.30;;
58874;SDS011;44652;49.040;12.126;2023-03-13T15:18:15;4.78;;;2.63;;
58874;SDS011;44652;49.040;12.126;2023-03-13T15:20:42;6.70;;;2.83;;
58874;SDS011;44652;49.040;12.126;2023-03-13T15:23:10;4.70;;;2.58;;
58874;SDS011;44652;49.040;12.126;2023-03-13T15:25:38;5.75;;;2.90;;
58874;SDS011;44652;49.040;12.126;2023-03-13T15:28:13;5.97;;;2.90;;
58874;SDS011;44652;49.040;12.126;2023-03-13T15:30:41;5.68;;;2.60;;
58874;SDS011;44652;49.040;12.126;2023-03-13T15:33:11;6.95;;;2.90;;
58874;SDS011;44652;49.040;12.126;2023-03-13T15:35:38;8.15;;;3.08;;
58874;SDS011;44652;49.040;12.126;2023-03-13T15:38:05;6.80;;;3.13;;
58874;SDS011;44652;49.040;12.126;2023-03-13T15:40:31;6.00;;;3.63;;
58874;SDS011;44652;49.040;12.126;2023-03-13T15:42:58;5.40;;;3.50;;
58874;SDS011;44652;49.040;12.126;2023-03-13T15:45:25;5.75;;;3.40;;
58874;SDS011;44652;49.040;12.126;2023-03-13T15:47:51;4.80;;;3.15;;
58874;SDS011;44652;49.040;12.126;2023-03-13T15:50:19;7.63;;;3.70;;
58874;SDS011;44652;49.040;12.126;2023-03-13T15:52:45;6.30;;;3.13;;
58874;SDS011;44652;49.040;12.126;2023-03-13T15:55:12;9.32;;;3.28;;
58874;SDS011;44652;49.040;12.126;2023-03-13T15:57:46;5.63;;;2.70;;
58874;SDS011;44652;49.040;12.126;2023-03-13T16:00:19;5.63;;;2.92;;
58874;SDS011;44652;49.040;12.126;2023-03-13T16:02:46;9.55;;;3.30;;
58874;SDS011;44652;49.040;12.126;2023-03-13T16:05:12;6.07;;;3.45;;
58874;SDS011;44652;49.040;12.126;2023-03-13T16:07:39;5.03;;;3.03;;
58874;SDS011;44652;49.040;12.126;2023-03-13T16:10:11;5.55;;;3.05;;
58874;SDS011;44652;49.040;12.126;2023-03-13T16:12:39;6.43;;;3.10;;
58874;SDS011;44652;49.040;12.126;2023-03-13T16:15:06;6.78;;;3.28;;
58874;SDS011;44652;49.040;12.126;2023-03-13T16:17:33;6.07;;;2.72;;
58874;SDS011;44652;49.040;12.126;2023-03-13T16:19:59;6.45;;;2.97;;
58874;SDS011;44652;49.040;12.126;2023-03-13T16:22:26;5.40;;;3.33;;
58874;SDS011;44652;49.040;12.126;2023-03-13T16:24:52;6.90;;;3.55;;
58874;SDS011;44652;49.040;12.126;2023-03-13T16:27:19;4.47;;;3.03;;
58874;SDS011;44652;49.040;12.126;2023-03-13T16:29:46;5.23;;;3.00;;
58874;SDS011;44652;49.040;12.126;2023-03-13T16:32:14;6.20;;;3.35;;
58874;SDS011;44652;49.040;12.126;2023-03-13T16:34:41;8.63;;;3.70;;
58874;SDS011;44652;49.040;12.126;2023-03-13T16:37:11;5.37;;;3.17;;
58874;SDS011;44652;49.040;12.126;2023-03-13T16:39:38;6.65;;;3.50;;
58874;SDS011;44652;49.040;12.126;2023-03-13T16:42:05;7.20;;;3.42;;
58874;SDS011;44652;49.040;12.126;2023-03-13T16:44:31;6.63;;;3.05;;
58874;SDS011;44652;49.040;12.126;2023-03-13T16:46:58;6.65;;;3.47;;
58874;SDS011;44652;49.040;12.126;2023-03-13T16:49:31;4.90;;;3.08;;
58874;SDS011;44652;49.040;12.126;2023-03-13T16:51:58;7.15;;;2.70;;
58874;SDS011;44652;49.040;12.126;2023-03-13T16:54:24;8.40;;;3.38;;
58874;SDS011;44652;49.040;12.126;2023-03-13T16:56:51;5.43;;;2.90;;
58874;SDS011;44652;49.040;12.126;2023-03-13T16:59:17;5.70;;;3.05;;
58874;SDS011;44652;49.040;12.126;2023-03-13T17:01:44;5.05;;;2.80;;
58874;SDS011;44652;49.040;12.126;2023-03-13T17:04:12;5.13;;;2.95;;
58874;SDS011;44652;49.040;12.126;2023-03-13T17:06:40;5.55;;;3.22;;
58874;SDS011;44652;49.040;12.126;2023-03-13T17:09:11;6.40;;;3.20;;
58874;SDS011;44652;49.040;12.126;2023-03-13T17:11:38;5.07;;;2.83;;
58874;SDS011;44652;49.040;12.126;2023-03-13T17:14:05;6.25;;;3.22;;
58874;SDS011;44652;49.040;12.126;2023-03-13T17:16:33;5.57;;;2.70;;
58874;SDS011;44652;49.040;12.126;2023-03-13T17:19:00;5.55;;;3.17;;
58874;SDS011;44652;49.040;12.126;2023-03-13T17:21:28;6.30;;;2.85;;
58874;SDS011;44652;49.040;12.126;2023-03-13T17:23:55;6.32;;;3.28;;
58874;SDS011;44652;49.040;12.126;2023-03-13T17:26:23;4.40;;;2.90;;
58874;SDS011;44652;49.040;12.126;2023-03-13T17:31:17;5.95;;;3.50;;
58874;SDS011;44652;49.040;12.126;2023-03-13T17:33:44;7.07;;;4.07;;
58874;SDS011;44652;49.040;12.126;2023-03-13T17:36:15;7.18;;;3.78;;
58874;SDS011;44652;49.040;12.126;2023-03-13T17:38:42;5.40;;;3.60;;
58874;SDS011;44652;49.040;12.126;2023-03-13T17:41:09;4.43;;;2.70;;
58874;SDS011;44652;49.040;12.126;2023-03-13T17:43:37;5.97;;;3.00;;
58874;SDS011;44652;49.040;12.126;2023-03-13T17:46:07;8.90;;;4.20;;
58874;SDS011;44652;49.040;12.126;2023-03-13T17:48:35;8.25;;;3.13;;
58874;SDS011;44652;49.040;12.126;2023-03-13T17:51:02;5.70;;;3.25;;
58874;SDS011;44652;49.040;12.126;2023-03-13T17:53:28;6.05;;;3.60;;
58874;SDS011;44652;49.040;12.126;2023-03-13T17:55:55;6.88;;;3.45;;
58874;SDS011;44652;49.040;12.126;2023-03-13T17:58:21;10.23;;;7.13;;
58874;SDS011;44652;49.040;12.126;2023-03-13T18:00:48;7.63;;;3.72;;
58874;SDS011;44652;49.040;12.126;2023-03-13T18:03:14;5.75;;;3.00;;
58874;SDS011;44652;49.040;12.126;2023-03-13T18:05:41;6.72;;;3.20;;
58874;SDS011;44652;49.040;12.126;2023-03-13T18:08:08;11.00;;;4.85;;
58874;SDS011;44652;49.040;12.126;2023-03-13T18:10:36;8.50;;;4.57;;
58874;SDS011;44652;49.040;12.126;2023-03-13T18:13:02;7.93;;;3.67;;
58874;SDS011;44652;49.040;12.126;2023-03-13T18:15:29;6.40;;;3.50;;
58874;SDS011;44652;49.040;12.126;2023-03-13T18:17:58;6.18;;;3.55;;
58874;SDS011;44652;49.040;12.126;2023-03-13T18:20:26;7.80;;;3.65;;
58874;SDS011;44652;49.040;12.126;2023-03-13T18:25:27;6.55;;;4.88;;
58874;SDS011;44652;49.040;12.126;2023-03-13T18:27:54;6.93;;;4.13;;
58874;SDS011;44652;49.040;12.126;2023-03-13T18:30:22;8.38;;;3.08;;
58874;SDS011;44652;49.040;12.126;2023-03-13T18:32:49;9.20;;;4.45;;
58874;SDS011;44652;49.040;12.126;2023-03-13T18:35:16;7.30;;;3.15;;
58874;SDS011;44652;49.040;12.126;2023-03-13T18:37:43;7.35;;;3.15;;
58874;SDS011;44652;49.040;12.126;2023-03-13T18:42:37;6.35;;;3.30;;
58874;SDS011;44652;49.040;12.126;2023-03-13T18:45:04;6.20;;;4.25;;
58874;SDS011;44652;49.040;12.126;2023-03-13T18:47:31;9.27;;;5.32;;
58874;SDS011;44652;49.040;12.126;2023-03-13T18:49:58;6.93;;;2.70;;
58874;SDS011;44652;49.040;12.126;2023-03-13T18:52:24;5.45;;;3.08;;
58874;SDS011;44652;49.040;12.126;2023-03-13T18:54:51;8.63;;;2.70;;
58874;SDS011;44652;49.040;12.126;2023-03-13T18:57:18;5.72;;;2.75;;
58874;SDS011;44652;49.040;12.126;2023-03-13T18:59:45;4.75;;;2.40;;
58874;SDS011;44652;49.040;12.126;2023-03-13T19:02:16;4.53;;;2.22;;
58874;SDS011;44652;49.040;12.126;2023-03-13T19:04:43;3.70;;;2.05;;
58874;SDS011;44652;49.040;12.126;2023-03-13T19:07:15;3.78;;;2.20;;
58874;SDS011;44652;49.040;12.126;2023-03-13T19:09:44;5.28;;;2.40;;
58874;SDS011;44652;49.040;12.126;2023-03-13T19:12:12;6.10;;;2.45;;
58874;SDS011;44652;49.040;12.126;2023-03-13T19:14:41;5.43;;;2.53;;
58874;SDS011;44652;49.040;12.126;2023-03-13T19:17:18;5.32;;;2.75;;
58874;SDS011;44652;49.040;12.126;2023-03-13T19:19:48;4.95;;;2.60;;
58874;SDS011;44652;49.040;12.126;2023-03-13T19:22:14;5.22;;;2.95;;
58874;SDS011;44652;49.040;12.126;2023-03-13T19:24:41;4.63;;;2.50;;
58874;SDS011;44652;49.040;12.126;2023-03-13T19:27:09;9.30;;;4.18;;
58874;SDS011;44652;49.040;12.126;2023-03-13T19:29:38;6.93;;;3.00;;
58874;SDS011;44652;49.040;12.126;2023-03-13T19:32:04;4.60;;;2.70;;
58874;SDS011;44652;49.040;12.126;2023-03-13T19:34:32;5.80;;;2.88;;
58874;SDS011;44652;49.040;12.126;2023-03-13T19:36:59;5.30;;;3.00;;
58874;SDS011;44652;49.040;12.126;2023-03-13T19:39:26;7.15;;;3.08;;
58874;SDS011;44652;49.040;12.126;2023-03-13T19:41:52;5.30;;;2.88;;
58874;SDS011;44652;49.040;12.126;2023-03-13T19:44:19;5.07;;;2.88;;
58874;SDS011;44652;49.040;12.126;2023-03-13T19:46:46;7.03;;;2.92;;
58874;SDS011;44652;49.040;12.126;2023-03-13T19:49:14;6.78;;;3.30;;
58874;SDS011;44652;49.040;12.126;2023-03-13T19:51:40;5.35;;;2.83;;
58874;SDS011;44652;49.040;12.126;2023-03-13T19:54:07;5.63;;;3.13;;
58874;SDS011;44652;49.040;12.126;2023-03-13T19:56:41;7.80;;;3.03;;
58874;SDS011;44652;49.040;12.126;2023-03-13T19:59:12;6.78;;;3.15;;
58874;SDS011;44652;49.040;12.126;2023-03-13T20:01:39;5.93;;;3.40;;
58874;SDS011;44652;49.040;12.126;2023-03-13T20:04:06;5.72;;;3.20;;
58874;SDS011;44652;49.040;12.126;2023-03-13T20:06:35;6.15;;;3.17;;
58874;SDS011;44652;49.040;12.126;2023-03-13T20:09:11;6.18;;;2.95;;
58874;SDS011;44652;49.040;12.126;2023-03-13T20:11:39;8.07;;;3.20;;
58874;SDS011;44652;49.040;12.126;2023-03-13T20:14:08;5.55;;;3.05;;
58874;SDS011;44652;49.040;12.126;2023-03-13T20:16:35;5.05;;;2.85;;
58874;SDS011;44652;49.040;12.126;2023-03-13T20:19:01;6.13;;;3.70;;
58874;SDS011;44652;49.040;12.126;2023-03-13T20:21:29;5.68;;;2.90;;
58874;SDS011;44652;49.040;12.126;2023-03-13T20:23:56;6.38;;;3.13;;
58874;SDS011;44652;49.040;12.126;2023-03-13T20:26:23;5.13;;;3.10;;
58874;SDS011;44652;49.040;12.126;2023-03-13T20:28:51;6.10;;;3.03;;
58874;SDS011;44652;49.040;12.126;2023-03-13T20:31:18;7.35;;;4.15;;
58874;SDS011;44652;49.040;12.126;2023-03-13T20:33:45;5.60;;;2.75;;
58874;SDS011;44652;49.040;12.126;2023-03-13T20:36:14;9.05;;;3.15;;
58874;SDS011;44652;49.040;12.126;2023-03-13T20:38:41;5.72;;;3.30;;
58874;SDS011;44652;49.040;12.126;2023-03-13T20:41:09;5.15;;;2.70;;
58874;SDS011;44652;49.040;12.126;2023-03-13T20:43:36;6.60;;;2.90;;
58874;SDS011;44652;49.040;12.126;2023-03-13T20:46:04;7.18;;;3.08;;
58874;SDS011;44652;49.040;12.126;2023-03-13T20:48:33;7.78;;;3.20;;
58874;SDS011;44652;49.040;12.126;2023-03-13T20:51:00;6.53;;;3.28;;
58874;SDS011;44652;49.040;12.126;2023-03-13T20:53:30;6.53;;;3.38;;
58874;SDS011;44652;49.040;12.126;2023-03-13T20:55:57;5.65;;;3.22;;
58874;SDS011;44652;49.040;12.126;2023-03-13T20:58:25;7.10;;;3.25;;
58874;SDS011;44652;49.040;12.126;2023-03-13T21:00:52;5.78;;;3.38;;
58874;SDS011;44652;49.040;12.126;2023-03-13T21:03:22;9.13;;;3.63;;
58874;SDS011;44652;49.040;12.126;2023-03-13T21:05:49;8.13;;;3.72;;
58874;SDS011;44652;49.040;12.126;2023-03-13T21:08:16;7.07;;;3.25;;
58874;SDS011;44652;49.040;12.126;2023-03-13T21:10:42;7.15;;;3.50;;
58874;SDS011;44652;49.040;12.126;2023-03-13T21:13:09;12.10;;;3.58;;
58874;SDS011;44652;49.040;12.126;2023-03-13T21:15:36;11.10;;;3.53;;
58874;SDS011;44652;49.040;12.126;2023-03-13T21:18:02;7.93;;;3.50;;
58874;SDS011;44652;49.040;12.126;2023-03-13T21:20:29;5.60;;;3.50;;
58874;SDS011;44652;49.040;12.126;2023-03-13T21:22:56;6.80;;;3.25;;
58874;SDS011;44652;49.040;12.126;2023-03-13T21:25:22;6.13;;;2.92;;
58874;SDS011;44652;49.040;12.126;2023-03-13T21:27:49;6.05;;;2.90;;
58874;SDS011;44652;49.040;12.126;2023-03-13T21:30:17;10.88;;;3.70;;
58874;SDS011;44652;49.040;12.126;2023-03-13T21:35:11;7.75;;;3.65;;
58874;SDS011;44652;49.040;12.126;2023-03-13T21:37:38;7.72;;;3.70;;
58874;SDS011;44652;49.040;12.126;2023-03-13T21:40:05;7.00;;;4.07;;
58874;SDS011;44652;49.040;12.126;2023-03-13T21:42:32;7.22;;;3.60;;
58874;SDS011;44652;49.040;12.126;2023-03-13T21:45:04;7.95;;;3.88;;
58874;SDS011;44652;49.040;12.126;2023-03-13T21:47:31;8.30;;;3.65;;